FAWC Weather

FACT METAR/TAF

[source: ADDS]
METAR
FACT 232100Z 18010KT 9999 FEW007 BKN030 20/18 Q1013 NOSIG =
TAF
TAF FACT 231600Z 2318/2424 21010KT 9999 SCT025 PROB30 TEMPO 2318/2403 BKN008 FM241200 17017KT 9999 FEW030 TX26/2412Z TN17/2404Z =
SR / SS: 03:57 / 17:55 UTC (FAWC 2018-01-23)

Polls

Flying Interest Is?